createdAt,value
2023-03-13T00:00:01.023Z,79.38
2023-03-13T00:05:03.735Z,79.62
2023-03-13T00:10:06.667Z,79.65
2023-03-13T00:15:08.853Z,79.05
2023-03-13T00:20:11.324Z,79.26
2023-03-13T00:25:12.912Z,79.09
2023-03-13T00:30:14.703Z,78.65
2023-03-13T00:35:16.612Z,79.09
2023-03-13T00:40:18.936Z,78.28
2023-03-13T00:45:20.550Z,78.34
2023-03-13T00:50:22.115Z,78.42
2023-03-13T00:55:23.708Z,77.73
2023-03-13T01:00:25.450Z,77.73
2023-03-13T01:05:27.087Z,77.45
2023-03-13T01:10:28.641Z,77.02
2023-03-13T01:15:31.293Z,76.68
2023-03-13T01:20:33.029Z,76.89
2023-03-13T01:25:37.720Z,76.80
2023-03-13T01:30:39.492Z,76.34
2023-03-13T01:35:42.098Z,75.91
2023-03-13T01:40:48.796Z,75.42
2023-03-13T01:46:17.730Z,75.29
2023-03-13T01:51:45.997Z,75.15
2023-03-13T01:56:51.110Z,75.13
2023-03-13T02:01:55.647Z,75.42
2023-03-13T02:07:01.640Z,75.32
2023-03-13T02:12:07.442Z,75.14
2023-03-13T02:17:09.010Z,74.68
2023-03-13T02:22:19.915Z,75.29
2023-03-13T02:27:21.734Z,75.49
2023-03-13T02:32:24.093Z,75.18
2023-03-13T02:37:27.343Z,75.33
2023-03-13T02:42:29.584Z,75.22
2023-03-13T02:47:32.286Z,74.99
2023-03-13T02:52:39.134Z,75.45
2023-03-13T02:57:41.186Z,75.09
2023-03-13T03:02:43.767Z,75.15
2023-03-13T03:07:45.336Z,75.55
2023-03-13T03:12:47.082Z,75.62
2023-03-13T03:17:48.954Z,75.71
2023-03-13T03:22:50.602Z,75.61
2023-03-13T03:27:52.525Z,75.21
2023-03-13T03:32:54.933Z,75.55
2023-03-13T03:37:57.750Z,75.63
2023-03-13T03:42:59.750Z,75.63
2023-03-13T03:48:01.910Z,75.40
2023-03-13T03:53:04.860Z,75.26
2023-03-13T03:58:07.031Z,75.13
2023-03-13T04:03:34.657Z,74.84
2023-03-13T04:08:37.038Z,74.86
2023-03-13T04:13:38.830Z,75.15
2023-03-13T04:18:40.567Z,74.69
2023-03-13T04:23:42.811Z,74.79
2023-03-13T04:28:44.519Z,74.94
2023-03-13T04:33:51.097Z,74.85
2023-03-13T04:39:04.640Z,75.72
2023-03-13T04:44:31.956Z,75.76
2023-03-13T04:49:53.173Z,75.53
2023-03-13T04:55:03.681Z,75.38
2023-03-13T05:00:22.569Z,75.85
2023-03-13T05:05:39.972Z,75.25
2023-03-13T05:11:10.467Z,75.68
2023-03-13T05:16:39.050Z,76.01
2023-03-13T05:22:09.763Z,75.66
2023-03-13T05:27:29.776Z,75.38
2023-03-13T05:32:49.856Z,75.90
2023-03-13T05:38:12.553Z,75.90
2023-03-13T05:43:34.438Z,75.48
2023-03-13T05:49:00.417Z,76.21
2023-03-13T05:54:19.009Z,76.56
2023-03-13T05:59:47.258Z,76.50
2023-03-13T06:05:14.937Z,76.44
2023-03-13T06:10:16.947Z,76.07
2023-03-13T06:15:18.737Z,76.06
2023-03-13T06:20:32.128Z,75.99
2023-03-13T06:25:35.265Z,75.22
2023-03-13T06:30:36.985Z,75.17
2023-03-13T06:35:55.071Z,75.00
2023-03-13T06:40:57.774Z,75.49
2023-03-13T06:46:03.767Z,75.59
2023-03-13T06:51:05.521Z,75.21
2023-03-13T06:56:08.047Z,75.04
2023-03-13T07:01:11.592Z,74.88
2023-03-13T07:06:13.185Z,74.83
2023-03-13T07:11:14.989Z,74.22
2023-03-13T07:16:16.776Z,74.40
2023-03-13T07:21:18.454Z,74.01
2023-03-13T07:26:20.604Z,74.13
2023-03-13T07:31:26.670Z,75.21
2023-03-13T07:36:28.494Z,75.92
2023-03-13T07:41:30.151Z,78.38
2023-03-13T07:46:31.698Z,78.33
2023-03-13T07:51:42.857Z,80.71
2023-03-13T07:56:45.818Z,81.58
2023-03-13T08:01:47.476Z,80.34
2023-03-13T08:06:49.103Z,81.94
2023-03-13T08:11:50.712Z,84.33
2023-03-13T08:16:52.338Z,83.36
2023-03-13T08:21:53.980Z,83.70
2023-03-13T08:26:55.569Z,85.47
2023-03-13T08:31:57.513Z,85.40
2023-03-13T08:36:59.108Z,84.75
2023-03-13T08:42:00.748Z,84.71
2023-03-13T08:47:02.390Z,83.84
2023-03-13T08:52:05.628Z,83.62
2023-03-13T08:57:07.253Z,82.38
2023-03-13T09:02:09.738Z,82.31
2023-03-13T09:07:11.358Z,82.08
2023-03-13T09:12:24.739Z,81.26
2023-03-13T09:17:29.967Z,81.40
2023-03-13T09:22:31.588Z,81.28
2023-03-13T09:27:33.160Z,80.96
2023-03-13T09:32:34.838Z,81.13
2023-03-13T09:37:36.538Z,82.34
2023-03-13T09:42:46.652Z,82.22
2023-03-13T09:47:56.096Z,82.28
2023-03-13T09:53:03.929Z,83.37
2023-03-13T09:58:16.508Z,84.00
2023-03-13T10:03:22.323Z,83.95
2023-03-13T10:08:26.352Z,82.56
2023-03-13T10:14:05.242Z,82.38
2023-03-13T10:19:14.535Z,83.76
2023-03-13T10:24:23.478Z,83.46
2023-03-13T10:29:27.414Z,84.01
2023-03-13T10:34:45.312Z,82.42
2023-03-13T10:39:46.865Z,82.71
2023-03-13T10:44:48.494Z,82.47
2023-03-13T10:49:57.160Z,82.73
2023-03-13T10:55:18.602Z,82.73
2023-03-13T11:00:29.169Z,82.15
2023-03-13T11:05:42.506Z,81.18
2023-03-13T11:11:19.722Z,82.12
2023-03-13T11:16:26.310Z,82.44
2023-03-13T11:21:33.812Z,82.35
2023-03-13T11:26:38.310Z,82.36
2023-03-13T11:31:47.643Z,82.82
2023-03-13T11:37:16.021Z,82.61
2023-03-13T11:42:32.677Z,81.51
2023-03-13T11:47:55.269Z,82.07
2023-03-13T11:53:18.585Z,81.54
2023-03-13T11:58:52.574Z,81.17
2023-03-13T12:04:04.286Z,81.92
2023-03-13T12:09:16.544Z,81.44
2023-03-13T12:14:34.029Z,80.97
2023-03-13T12:19:47.727Z,81.13
2023-03-13T12:24:58.655Z,81.05
2023-03-13T12:30:49.224Z,80.61
2023-03-13T12:36:00.785Z,79.80
2023-03-13T12:41:11.444Z,79.28
2023-03-13T12:46:26.320Z,77.97
2023-03-13T12:51:54.784Z,78.25
2023-03-13T12:57:09.885Z,77.39
2023-03-13T13:02:37.468Z,76.35
2023-03-13T13:07:40.277Z,75.88
2023-03-13T13:12:44.919Z,74.87
2023-03-13T13:18:25.642Z,74.64
2023-03-13T13:23:34.181Z,75.03
2023-03-13T13:28:36.072Z,74.42
2023-03-13T13:33:38.416Z,73.17
2023-03-13T13:38:41.978Z,73.99
2023-03-13T13:43:48.918Z,73.46
2023-03-13T13:49:05.878Z,72.92
2023-03-13T13:54:53.423Z,72.82
2023-03-13T14:00:24.339Z,72.25
2023-03-13T14:05:29.176Z,72.07
2023-03-13T14:10:40.034Z,73.16
2023-03-13T14:15:54.960Z,72.87
2023-03-13T14:21:01.550Z,72.87
2023-03-13T14:26:13.364Z,72.86
2023-03-13T14:31:32.958Z,72.13
2023-03-13T14:36:47.767Z,72.56
2023-03-13T14:41:50.217Z,72.24
2023-03-13T14:46:56.742Z,72.02
2023-03-13T14:52:01.436Z,71.53
2023-03-13T14:57:02.982Z,71.03
2023-03-13T15:02:16.542Z,71.86
2023-03-13T15:07:18.923Z,71.54
2023-03-13T15:12:22.769Z,71.84
2023-03-13T15:17:26.602Z,70.63
2023-03-13T15:22:31.205Z,71.14
2023-03-13T15:27:33.426Z,70.90
2023-03-13T15:32:37.676Z,70.98
2023-03-13T15:37:39.285Z,70.62
2023-03-13T15:42:40.987Z,70.24
2023-03-13T15:47:42.655Z,70.49
2023-03-13T15:52:44.484Z,70.58
2023-03-13T15:57:47.294Z,70.29
2023-03-13T16:02:49.245Z,69.87
2023-03-13T16:07:50.847Z,70.04
2023-03-13T16:12:55.935Z,70.33
2023-03-13T16:17:57.607Z,70.19
2023-03-13T16:23:03.354Z,70.53
2023-03-13T16:28:07.417Z,70.62
2023-03-13T16:33:10.235Z,70.77
2023-03-13T16:38:11.937Z,70.88
2023-03-13T16:43:13.569Z,70.88
2023-03-13T16:48:17.586Z,72.17
2023-03-13T16:53:19.478Z,72.11
2023-03-13T16:58:21.472Z,72.49
2023-03-13T17:03:23.335Z,73.00
2023-03-13T17:08:24.894Z,73.76
2023-03-13T17:13:26.533Z,73.90
2023-03-13T17:18:28.106Z,73.73
2023-03-13T17:23:30.939Z,73.84
2023-03-13T17:28:32.576Z,74.09
2023-03-13T17:33:34.209Z,74.04
2023-03-13T17:38:35.896Z,74.40
2023-03-13T17:43:38.176Z,74.88
2023-03-13T17:48:39.733Z,75.50
2023-03-13T17:53:41.370Z,75.93
2023-03-13T17:58:43.301Z,76.16
2023-03-13T18:03:45.549Z,76.56
2023-03-13T18:08:48.633Z,76.27
2023-03-13T18:13:50.689Z,76.55
2023-03-13T18:18:53.606Z,76.49
2023-03-13T18:23:56.960Z,76.42
2023-03-13T18:29:00.290Z,76.29
2023-03-13T18:34:04.054Z,75.93
2023-03-13T18:39:08.953Z,75.64
2023-03-13T18:44:14.664Z,76.03
2023-03-13T18:49:21.469Z,75.80
2023-03-13T18:54:23.184Z,75.99
2023-03-13T18:59:26.073Z,76.13
2023-03-13T19:04:27.716Z,76.28
2023-03-13T19:09:43.265Z,76.11
2023-03-13T19:14:45.733Z,76.10
2023-03-13T19:19:47.558Z,76.31
2023-03-13T19:24:49.109Z,76.28
2023-03-13T19:29:50.762Z,76.22
2023-03-13T19:34:52.397Z,76.69
2023-03-13T19:39:54.076Z,84.49
2023-03-13T19:44:55.700Z,83.68
2023-03-13T19:49:58.672Z,86.14
2023-03-13T19:55:05.094Z,87.36
2023-03-13T20:00:09.246Z,86.28
2023-03-13T20:05:13.927Z,88.65
2023-03-13T20:10:15.735Z,88.28
2023-03-13T20:15:18.028Z,88.21
2023-03-13T20:20:19.927Z,88.68
2023-03-13T20:25:24.117Z,88.29
2023-03-13T20:30:26.845Z,87.79
2023-03-13T20:35:28.831Z,88.07
2023-03-13T20:40:32.032Z,89.00
2023-03-13T20:45:33.809Z,86.54
2023-03-13T20:50:35.418Z,86.41
2023-03-13T20:55:40.468Z,86.40
2023-03-13T21:00:42.837Z,86.38
2023-03-13T21:05:45.025Z,86.39
2023-03-13T21:10:46.739Z,86.35
2023-03-13T21:15:48.434Z,87.10
2023-03-13T21:20:50.118Z,87.27
2023-03-13T21:25:58.654Z,87.65
2023-03-13T21:31:08.718Z,88.32
2023-03-13T21:36:11.230Z,88.65
2023-03-13T21:41:18.660Z,88.85
2023-03-13T21:46:22.055Z,88.93
2023-03-13T21:51:23.700Z,88.18
2023-03-13T21:56:25.402Z,88.86
2023-03-13T22:01:26.994Z,88.49
2023-03-13T22:06:28.648Z,90.14
2023-03-13T22:11:30.569Z,91.24
2023-03-13T22:16:32.268Z,90.60
2023-03-13T22:21:34.001Z,92.61
2023-03-13T22:26:35.793Z,92.67
2023-03-13T22:31:37.379Z,93.61
2023-03-13T22:36:38.933Z,96.04
2023-03-13T22:41:40.683Z,96.76
2023-03-13T22:46:42.301Z,96.99
2023-03-13T22:51:43.948Z,93.41
2023-03-13T22:56:45.696Z,93.84
2023-03-13T23:01:47.917Z,93.92
2023-03-13T23:06:49.464Z,94.82
2023-03-13T23:11:51.163Z,95.82
2023-03-13T23:16:52.749Z,95.29
2023-03-13T23:21:54.458Z,95.16
2023-03-13T23:26:56.140Z,95.18
2023-03-13T23:31:57.801Z,94.60
2023-03-13T23:36:59.725Z,94.68
2023-03-13T23:42:01.339Z,94.54
2023-03-13T23:47:03.305Z,94.24
2023-03-13T23:52:05.181Z,94.02
2023-03-13T23:57:06.857Z,93.81
